logo dgac
Miércoles 24 de Julio del 2024
Buscar por aerodromo o helipuerto
Ingrese nombre de aeródromo, localidad o designador OACI:

Aeródromo: Viña del Mar (PUB) (SCVM)

Ubicación: Viña del Mar, V Región, Chile (32º 56' 59'' S, 71º 28' 43'' W) Ver ubicación en el mapa

Pistas

Luces
Orientación Dimensión Pendiente Superficie Resistencia APCH THR RWY PAPI
05/23 1750 x 30 0,60 ASPH PCN 30 F/B/X/T Sí (3.2º)
Horas de operación H24
Elevación 140 m / 461 ft
Otra Información Adm : Armada de Chile
Uso : PUB
TEL : Jefatura: +56 961752059 / TEL ARO: 224392746 - CEL +56 997901315
Ubicado a 15 km NE de Viña del Mar
email : aro.vina@dgac.gob.cl

Otra información ver AIP-Chile Volumen I AD 3.9-20.6-V
CCCM/FCCV Descargar CCCM/FCCV
andera de Chile
Mapa de Viña del Mar (PUB) (SCVM)

Último METAR

METAR SCVM 240200Z 16003KT CAVOK 10/06 Q1023

Último TAF

TAF SCVM 232200Z 2400/2424 33010KT 9999 FEW035 SCT170 TX20/2419Z TN04/2410Z BECMG 2401/2403 14004KT BECMG 2405/2407 CAVOK BECMG 2416/2418 30010KT

Últimas fotos cámaras

Imagen aerodromo Viña del Mar (PUB) (SCVM) S-Oeste tomada el 24-07-2024 02:13:22 Imagen aerodromo Viña del Mar (PUB) (SCVM) N-Este tomada el 24-07-2024 02:12:54

Último NOTAM

W1677/24 NOTAMN Q)SCEZ/QWULW/IV/BO/AW/000/003/3256S07129W002 A)SCVM B)2407211230 C)2408302130 D)DLY BTN 1230-2130 E)RPAS FLT ZONE ...D... SECT TORQUEMADA, VINA DEL MAR WI: ZONE 1: 325559S / 0712935W RDO 2.5NM ZONE 2: 325607S / 0712827W RDO 0.2NM ZONE 3: 325551S / 0713010W RDO 0.5NM F)GND G)290FT AGL